sensor_id;sensor_type;location;lat;lon;timestamp;pressure;altitude;pressure_sealevel;temperature;humidity
61324;BME280;47203;48.428;11.974;2024-02-23T00:00:18;94807.22;;;13.87;54.36
61324;BME280;47203;48.428;11.974;2024-02-23T00:02:21;94799.63;;;13.85;54.33
61324;BME280;47203;48.428;11.974;2024-02-23T00:04:25;94816.91;;;13.83;54.36
61324;BME280;47203;48.428;11.974;2024-02-23T00:06:30;94822.53;;;13.81;54.45
61324;BME280;47203;48.428;11.974;2024-02-23T00:08:33;94815.72;;;13.80;54.41
61324;BME280;47203;48.428;11.974;2024-02-23T00:10:37;94829.28;;;13.78;54.22
61324;BME280;47203;48.428;11.974;2024-02-23T00:12:40;94834.56;;;13.78;54.22
61324;BME280;47203;48.428;11.974;2024-02-23T00:14:47;94848.09;;;13.77;54.33
61324;BME280;47203;48.428;11.974;2024-02-23T00:16:50;94849.19;;;13.76;54.13
61324;BME280;47203;48.428;11.974;2024-02-23T00:18:54;94863.97;;;13.77;53.86
61324;BME280;47203;48.428;11.974;2024-02-23T00:20:57;94854.50;;;13.76;53.71
61324;BME280;47203;48.428;11.974;2024-02-23T00:23:03;94851.38;;;13.74;53.31
61324;BME280;47203;48.428;11.974;2024-02-23T00:25:07;94847.22;;;13.73;53.14
61324;BME280;47203;48.428;11.974;2024-02-23T00:27:09;94851.63;;;13.69;53.17
61324;BME280;47203;48.428;11.974;2024-02-23T00:29:13;94854.13;;;13.65;53.04
61324;BME280;47203;48.428;11.974;2024-02-23T00:31:16;94840.81;;;13.61;53.01
61324;BME280;47203;48.428;11.974;2024-02-23T00:33:20;94848.31;;;13.59;52.80
61324;BME280;47203;48.428;11.974;2024-02-23T00:35:23;94863.28;;;13.55;52.67
61324;BME280;47203;48.428;11.974;2024-02-23T00:37:26;94858.19;;;13.50;52.75
61324;BME280;47203;48.428;11.974;2024-02-23T00:39:32;94869.75;;;13.46;52.66
61324;BME280;47203;48.428;11.974;2024-02-23T00:41:36;94859.41;;;13.40;52.44
61324;BME280;47203;48.428;11.974;2024-02-23T00:43:40;94859.28;;;13.37;52.32
61324;BME280;47203;48.428;11.974;2024-02-23T00:45:44;94859.47;;;13.32;52.36
61324;BME280;47203;48.428;11.974;2024-02-23T00:47:47;94860.09;;;13.28;52.28
61324;BME280;47203;48.428;11.974;2024-02-23T00:49:51;94875.06;;;13.24;52.20
61324;BME280;47203;48.428;11.974;2024-02-23T00:51:55;94872.63;;;13.19;52.10
61324;BME280;47203;48.428;11.974;2024-02-23T00:54:00;94894.09;;;13.18;52.17
61324;BME280;47203;48.428;11.974;2024-02-23T00:56:05;94877.34;;;13.14;52.00
61324;BME280;47203;48.428;11.974;2024-02-23T00:58:09;94884.03;;;13.11;51.91
61324;BME280;47203;48.428;11.974;2024-02-23T01:00:12;94892.63;;;13.08;51.73
61324;BME280;47203;48.428;11.974;2024-02-23T01:02:16;94895.25;;;13.08;51.80
61324;BME280;47203;48.428;11.974;2024-02-23T01:04:20;94914.53;;;13.08;51.81
61324;BME280;47203;48.428;11.974;2024-02-23T01:06:24;94903.50;;;13.06;51.73
61324;BME280;47203;48.428;11.974;2024-02-23T01:08:27;94905.06;;;13.07;51.74
61324;BME280;47203;48.428;11.974;2024-02-23T01:10:31;94916.72;;;13.06;51.71
61324;BME280;47203;48.428;11.974;2024-02-23T01:12:35;94909.09;;;13.05;51.45
61324;BME280;47203;48.428;11.974;2024-02-23T01:14:39;94906.78;;;13.03;51.61
61324;BME280;47203;48.428;11.974;2024-02-23T01:16:42;94903.72;;;13.01;51.58
61324;BME280;47203;48.428;11.974;2024-02-23T01:18:47;94912.72;;;13.00;51.48
61324;BME280;47203;48.428;11.974;2024-02-23T01:20:50;94917.25;;;13.00;51.35
61324;BME280;47203;48.428;11.974;2024-02-23T01:22:53;94908.53;;;12.99;51.51
61324;BME280;47203;48.428;11.974;2024-02-23T01:24:57;94921.41;;;13.01;51.40
61324;BME280;47203;48.428;11.974;2024-02-23T01:27:00;94913.50;;;13.01;51.36
61324;BME280;47203;48.428;11.974;2024-02-23T01:29:05;94928.91;;;12.99;51.13
61324;BME280;47203;48.428;11.974;2024-02-23T01:31:08;94927.81;;;13.00;51.12
61324;BME280;47203;48.428;11.974;2024-02-23T01:33:13;94921.09;;;13.02;51.06
61324;BME280;47203;48.428;11.974;2024-02-23T01:35:17;94924.06;;;13.01;50.87
61324;BME280;47203;48.428;11.974;2024-02-23T01:37:20;94931.97;;;13.01;50.88
61324;BME280;47203;48.428;11.974;2024-02-23T01:39:26;94938.38;;;13.00;50.79
61324;BME280;47203;48.428;11.974;2024-02-23T01:41:30;94934.19;;;12.99;50.61
61324;BME280;47203;48.428;11.974;2024-02-23T01:43:34;94948.03;;;12.96;50.62
61324;BME280;47203;48.428;11.974;2024-02-23T01:45:39;94946.03;;;12.92;50.40
61324;BME280;47203;48.428;11.974;2024-02-23T01:47:42;94938.13;;;12.92;50.34
61324;BME280;47203;48.428;11.974;2024-02-23T01:49:47;94947.44;;;12.90;50.20
61324;BME280;47203;48.428;11.974;2024-02-23T01:51:50;94941.06;;;12.91;50.15
61324;BME280;47203;48.428;11.974;2024-02-23T01:53:55;94944.81;;;12.90;50.19
61324;BME280;47203;48.428;11.974;2024-02-23T01:56:00;94940.59;;;12.89;49.99
61324;BME280;47203;48.428;11.974;2024-02-23T01:58:03;94939.19;;;12.91;49.82
61324;BME280;47203;48.428;11.974;2024-02-23T02:00:16;94939.84;;;12.88;49.91
61324;BME280;47203;48.428;11.974;2024-02-23T02:02:28;94945.13;;;12.88;49.91
61324;BME280;47203;48.428;11.974;2024-02-23T02:04:31;94952.72;;;12.90;49.78
61324;BME280;47203;48.428;11.974;2024-02-23T02:06:35;94947.00;;;12.88;49.66
61324;BME280;47203;48.428;11.974;2024-02-23T02:08:38;94951.56;;;12.79;49.99
61324;BME280;47203;48.428;11.974;2024-02-23T02:10:41;94958.06;;;12.81;49.61
61324;BME280;47203;48.428;11.974;2024-02-23T02:12:46;94963.78;;;12.83;49.59
61324;BME280;47203;48.428;11.974;2024-02-23T02:14:49;94959.63;;;12.82;49.18
61324;BME280;47203;48.428;11.974;2024-02-23T02:16:53;94961.94;;;12.84;49.25
61324;BME280;47203;48.428;11.974;2024-02-23T02:18:58;94961.03;;;12.80;49.09
61324;BME280;47203;48.428;11.974;2024-02-23T02:21:01;94956.06;;;12.78;49.20
61324;BME280;47203;48.428;11.974;2024-02-23T02:23:05;94971.44;;;12.76;49.03
61324;BME280;47203;48.428;11.974;2024-02-23T02:25:09;94990.25;;;12.74;49.12
61324;BME280;47203;48.428;11.974;2024-02-23T02:27:13;94973.63;;;12.74;48.86
61324;BME280;47203;48.428;11.974;2024-02-23T02:29:16;94983.75;;;12.72;48.93
61324;BME280;47203;48.428;11.974;2024-02-23T02:31:19;94992.75;;;12.71;48.95
61324;BME280;47203;48.428;11.974;2024-02-23T02:33:23;94992.75;;;12.71;48.84
61324;BME280;47203;48.428;11.974;2024-02-23T02:35:28;94987.81;;;12.69;48.94
61324;BME280;47203;48.428;11.974;2024-02-23T02:37:31;94988.56;;;12.70;48.92
61324;BME280;47203;48.428;11.974;2024-02-23T02:39:33;94992.31;;;12.69;48.72
61324;BME280;47203;48.428;11.974;2024-02-23T02:41:37;94991.09;;;12.66;48.80
61324;BME280;47203;48.428;11.974;2024-02-23T02:43:40;94992.16;;;12.65;48.73
61324;BME280;47203;48.428;11.974;2024-02-23T02:45:44;95005.38;;;12.65;48.89
61324;BME280;47203;48.428;11.974;2024-02-23T02:47:47;94989.53;;;12.65;48.97
61324;BME280;47203;48.428;11.974;2024-02-23T02:49:49;95003.81;;;12.64;48.88
61324;BME280;47203;48.428;11.974;2024-02-23T02:51:54;95012.03;;;12.63;48.76
61324;BME280;47203;48.428;11.974;2024-02-23T02:53:57;95012.53;;;12.65;49.04
61324;BME280;47203;48.428;11.974;2024-02-23T02:56:01;95008.31;;;12.64;49.05
61324;BME280;47203;48.428;11.974;2024-02-23T02:58:06;95016.25;;;12.64;48.87
61324;BME280;47203;48.428;11.974;2024-02-23T03:00:11;95025.41;;;12.66;48.95
61324;BME280;47203;48.428;11.974;2024-02-23T03:02:14;95031.59;;;12.70;49.10
61324;BME280;47203;48.428;11.974;2024-02-23T03:04:17;95028.63;;;12.72;49.09
61324;BME280;47203;48.428;11.974;2024-02-23T03:06:20;95042.59;;;12.72;49.12
61324;BME280;47203;48.428;11.974;2024-02-23T03:08:25;95042.59;;;12.72;49.11
61324;BME280;47203;48.428;11.974;2024-02-23T03:10:29;95046.78;;;12.73;49.12
61324;BME280;47203;48.428;11.974;2024-02-23T03:12:32;95058.44;;;12.72;49.28
61324;BME280;47203;48.428;11.974;2024-02-23T03:14:35;95056.13;;;12.71;49.10
61324;BME280;47203;48.428;11.974;2024-02-23T03:16:39;95060.16;;;12.68;49.24
61324;BME280;47203;48.428;11.974;2024-02-23T03:18:44;95056.59;;;12.64;49.07
61324;BME280;47203;48.428;11.974;2024-02-23T03:20:48;95064.38;;;12.61;49.08
61324;BME280;47203;48.428;11.974;2024-02-23T03:22:53;95066.44;;;12.55;49.11
61324;BME280;47203;48.428;11.974;2024-02-23T03:24:58;95063.66;;;12.51;49.09
61324;BME280;47203;48.428;11.974;2024-02-23T03:27:01;95059.00;;;12.48;49.23
61324;BME280;47203;48.428;11.974;2024-02-23T03:29:05;95064.59;;;12.47;48.87
61324;BME280;47203;48.428;11.974;2024-02-23T03:31:08;95071.59;;;12.43;49.20
61324;BME280;47203;48.428;11.974;2024-02-23T03:33:13;95076.41;;;12.40;49.03
61324;BME280;47203;48.428;11.974;2024-02-23T03:35:16;95075.66;;;12.40;49.12
61324;BME280;47203;48.428;11.974;2024-02-23T03:37:19;95076.72;;;12.39;49.05
61324;BME280;47203;48.428;11.974;2024-02-23T03:39:23;95076.59;;;12.35;49.01
61324;BME280;47203;48.428;11.974;2024-02-23T03:41:27;95076.44;;;12.32;49.06
61324;BME280;47203;48.428;11.974;2024-02-23T03:43:31;95077.84;;;12.29;48.91
61324;BME280;47203;48.428;11.974;2024-02-23T03:45:35;95076.94;;;12.25;48.94
61324;BME280;47203;48.428;11.974;2024-02-23T03:47:40;95069.63;;;12.22;49.01
61324;BME280;47203;48.428;11.974;2024-02-23T03:49:44;95068.84;;;12.21;49.02
61324;BME280;47203;48.428;11.974;2024-02-23T03:51:47;95073.38;;;12.21;49.00
61324;BME280;47203;48.428;11.974;2024-02-23T03:53:50;95067.31;;;12.20;49.09
61324;BME280;47203;48.428;11.974;2024-02-23T03:55:54;95068.41;;;12.19;48.77
61324;BME280;47203;48.428;11.974;2024-02-23T03:57:59;95073.53;;;12.16;48.69
61324;BME280;47203;48.428;11.974;2024-02-23T04:00:03;95070.44;;;12.14;48.53
61324;BME280;47203;48.428;11.974;2024-02-23T04:02:12;95068.13;;;12.12;48.70
61324;BME280;47203;48.428;11.974;2024-02-23T04:04:16;95067.31;;;12.12;48.72
61324;BME280;47203;48.428;11.974;2024-02-23T04:06:19;95064.25;;;12.10;48.74
61324;BME280;47203;48.428;11.974;2024-02-23T04:08:22;95062.69;;;12.09;48.57
61324;BME280;47203;48.428;11.974;2024-02-23T04:10:25;95062.53;;;12.05;48.70
61324;BME280;47203;48.428;11.974;2024-02-23T04:12:30;95058.66;;;12.02;48.52
61324;BME280;47203;48.428;11.974;2024-02-23T04:14:34;95064.56;;;11.99;48.60
61324;BME280;47203;48.428;11.974;2024-02-23T04:16:38;95066.44;;;11.99;48.46
61324;BME280;47203;48.428;11.974;2024-02-23T04:18:42;95069.69;;;11.96;48.71
61324;BME280;47203;48.428;11.974;2024-02-23T04:20:45;95073.41;;;11.95;48.61
61324;BME280;47203;48.428;11.974;2024-02-23T04:22:49;95075.25;;;11.94;48.58
61324;BME280;47203;48.428;11.974;2024-02-23T04:24:52;95091.69;;;11.91;48.47
61324;BME280;47203;48.428;11.974;2024-02-23T04:26:56;95084.88;;;11.90;48.60
61324;BME280;47203;48.428;11.974;2024-02-23T04:28:58;95084.88;;;11.90;48.52
61324;BME280;47203;48.428;11.974;2024-02-23T04:31:03;95082.56;;;11.88;48.47
61324;BME280;47203;48.428;11.974;2024-02-23T04:33:06;95080.69;;;11.89;48.49
61324;BME280;47203;48.428;11.974;2024-02-23T04:35:10;95079.44;;;11.86;48.47
61324;BME280;47203;48.428;11.974;2024-02-23T04:37:13;95074.03;;;11.83;48.43
61324;BME280;47203;48.428;11.974;2024-02-23T04:39:17;95076.81;;;11.78;48.61
61324;BME280;47203;48.428;11.974;2024-02-23T04:41:20;95075.25;;;11.77;48.69
61324;BME280;47203;48.428;11.974;2024-02-23T04:43:24;95069.53;;;11.75;48.50
61324;BME280;47203;48.428;11.974;2024-02-23T04:45:28;95065.34;;;11.74;48.61
61324;BME280;47203;48.428;11.974;2024-02-23T04:47:33;95064.13;;;11.71;48.63
61324;BME280;47203;48.428;11.974;2024-02-23T04:49:37;95060.38;;;11.72;48.66
61324;BME280;47203;48.428;11.974;2024-02-23T04:51:41;95056.22;;;11.71;48.72
61324;BME280;47203;48.428;11.974;2024-02-23T04:53:44;95059.13;;;11.69;48.64
61324;BME280;47203;48.428;11.974;2024-02-23T04:55:48;95054.97;;;11.68;48.75
61324;BME280;47203;48.428;11.974;2024-02-23T04:57:52;95045.06;;;11.65;48.77
61324;BME280;47203;48.428;11.974;2024-02-23T04:59:55;95040.09;;;11.64;48.77
61324;BME280;47203;48.428;11.974;2024-02-23T05:02:00;95048.31;;;11.62;48.65
61324;BME280;47203;48.428;11.974;2024-02-23T05:04:05;95069.09;;;11.64;48.88
61324;BME280;47203;48.428;11.974;2024-02-23T05:06:08;95070.00;;;11.68;48.87
61324;BME280;47203;48.428;11.974;2024-02-23T05:08:12;95076.50;;;11.70;49.00
61324;BME280;47203;48.428;11.974;2024-02-23T05:10:15;95078.06;;;11.72;49.03
61324;BME280;47203;48.428;11.974;2024-02-23T05:12:20;95079.31;;;11.74;48.92
61324;BME280;47203;48.428;11.974;2024-02-23T05:14:23;95080.06;;;11.75;48.87
61324;BME280;47203;48.428;11.974;2024-02-23T05:16:27;95068.47;;;11.76;48.76
61324;BME280;47203;48.428;11.974;2024-02-23T05:18:30;95071.84;;;11.76;48.88
61324;BME280;47203;48.428;11.974;2024-02-23T05:20:35;95077.13;;;11.76;48.84
61324;BME280;47203;48.428;11.974;2024-02-23T05:22:39;95076.81;;;11.78;48.82
61324;BME280;47203;48.428;11.974;2024-02-23T05:24:42;95076.81;;;11.78;48.88
61324;BME280;47203;48.428;11.974;2024-02-23T05:26:47;95073.09;;;11.79;48.77
61324;BME280;47203;48.428;11.974;2024-02-23T05:28:50;95070.47;;;11.79;48.87
61324;BME280;47203;48.428;11.974;2024-02-23T05:30:54;95072.03;;;11.80;48.80
61324;BME280;47203;48.428;11.974;2024-02-23T05:32:58;95073.41;;;11.77;49.08
61324;BME280;47203;48.428;11.974;2024-02-23T05:35:05;95081.63;;;11.76;48.98
61324;BME280;47203;48.428;11.974;2024-02-23T05:37:12;95086.44;;;11.74;48.99
61324;BME280;47203;48.428;11.974;2024-02-23T05:39:15;95079.31;;;11.74;49.00
61324;BME280;47203;48.428;11.974;2024-02-23T05:41:19;95089.84;;;11.74;49.10
61324;BME280;47203;48.428;11.974;2024-02-23T05:43:23;95089.38;;;11.72;49.07
61324;BME280;47203;48.428;11.974;2024-02-23T05:45:26;95090.75;;;11.69;48.99
61324;BME280;47203;48.428;11.974;2024-02-23T05:47:30;95094.50;;;11.68;49.21
61324;BME280;47203;48.428;11.974;2024-02-23T05:49:33;95101.94;;;11.66;49.05
61324;BME280;47203;48.428;11.974;2024-02-23T05:51:38;95097.75;;;11.65;49.21
61324;BME280;47203;48.428;11.974;2024-02-23T05:53:43;95097.28;;;11.63;49.20
61324;BME280;47203;48.428;11.974;2024-02-23T05:55:45;95096.50;;;11.63;49.15
61324;BME280;47203;48.428;11.974;2024-02-23T05:57:49;95101.31;;;11.61;49.17
61324;BME280;47203;48.428;11.974;2024-02-23T05:59:53;95101.03;;;11.62;49.02
61324;BME280;47203;48.428;11.974;2024-02-23T06:01:57;95106.56;;;11.61;49.22
61324;BME280;47203;48.428;11.974;2024-02-23T06:04:01;95116.34;;;11.60;49.12
61324;BME280;47203;48.428;11.974;2024-02-23T06:06:07;95119.28;;;11.59;49.20
61324;BME280;47203;48.428;11.974;2024-02-23T06:08:11;95129.84;;;11.59;48.96
61324;BME280;47203;48.428;11.974;2024-02-23T06:10:16;95119.59;;;11.57;49.28
61324;BME280;47203;48.428;11.974;2024-02-23T06:12:19;95131.69;;;11.58;49.31
61324;BME280;47203;48.428;11.974;2024-02-23T06:14:22;95134.34;;;11.58;49.07
61324;BME280;47203;48.428;11.974;2024-02-23T06:16:27;95137.28;;;11.57;49.26
61324;BME280;47203;48.428;11.974;2024-02-23T06:18:30;95129.38;;;11.57;49.12
61324;BME280;47203;48.428;11.974;2024-02-23T06:20:34;95130.16;;;11.57;49.13
61324;BME280;47203;48.428;11.974;2024-02-23T06:22:38;95132.00;;;11.57;49.12
61324;BME280;47203;48.428;11.974;2024-02-23T06:24:40;95130.91;;;11.58;49.08
61324;BME280;47203;48.428;11.974;2024-02-23T06:26:45;95135.41;;;11.57;49.29
61324;BME280;47203;48.428;11.974;2024-02-23T06:28:51;95138.50;;;11.59;49.27
61324;BME280;47203;48.428;11.974;2024-02-23T06:30:54;95139.31;;;11.60;49.16
61324;BME280;47203;48.428;11.974;2024-02-23T06:32:57;95140.06;;;11.60;49.01
61324;BME280;47203;48.428;11.974;2024-02-23T06:35:01;95149.03;;;11.59;49.20
61324;BME280;47203;48.428;11.974;2024-02-23T06:37:05;95149.03;;;11.59;49.12
61324;BME280;47203;48.428;11.974;2024-02-23T06:39:08;95152.00;;;11.58;49.06
61324;BME280;47203;48.428;11.974;2024-02-23T06:41:12;95157.25;;;11.58;49.12
61324;BME280;47203;48.428;11.974;2024-02-23T06:43:17;95159.91;;;11.58;49.12
61324;BME280;47203;48.428;11.974;2024-02-23T06:45:24;95161.16;;;11.60;49.17
61324;BME280;47203;48.428;11.974;2024-02-23T06:47:27;95161.91;;;11.61;48.96
61324;BME280;47203;48.428;11.974;2024-02-23T06:49:31;95163.47;;;11.62;49.08
61324;BME280;47203;48.428;11.974;2024-02-23T06:51:35;95166.09;;;11.62;48.93
61324;BME280;47203;48.428;11.974;2024-02-23T06:53:40;95169.06;;;11.60;49.00
61324;BME280;47203;48.428;11.974;2024-02-23T06:55:43;95167.50;;;11.59;48.95
61324;BME280;47203;48.428;11.974;2024-02-23T06:57:46;95173.56;;;11.60;49.09
61324;BME280;47203;48.428;11.974;2024-02-23T06:59:51;95170.91;;;11.60;48.97
61324;BME280;47203;48.428;11.974;2024-02-23T07:01:55;95167.19;;;11.61;49.01
61324;BME280;47203;48.428;11.974;2024-02-23T07:03:58;95165.03;;;11.63;48.89
61324;BME280;47203;48.428;11.974;2024-02-23T07:06:02;95161.00;;;11.65;49.01
61324;BME280;47203;48.428;11.974;2024-02-23T07:08:06;95150.16;;;11.67;48.95
61324;BME280;47203;48.428;11.974;2024-02-23T07:10:10;95148.75;;;11.69;48.88
61324;BME280;47203;48.428;11.974;2024-02-23T07:12:14;95153.09;;;11.74;48.91
61324;BME280;47203;48.428;11.974;2024-02-23T07:14:17;95152.00;;;11.75;48.76
61324;BME280;47203;48.428;11.974;2024-02-23T07:16:24;95153.56;;;11.76;48.64
61324;BME280;47203;48.428;11.974;2024-02-23T07:18:27;95152.94;;;11.79;48.60
61324;BME280;47203;48.428;11.974;2024-02-23T07:20:31;95155.44;;;11.84;48.75
61324;BME280;47203;48.428;11.974;2024-02-23T07:22:34;95166.13;;;11.88;48.53
61324;BME280;47203;48.428;11.974;2024-02-23T07:24:39;95164.75;;;11.91;48.52
61324;BME280;47203;48.428;11.974;2024-02-23T07:26:43;95168.34;;;11.95;48.42
61324;BME280;47203;48.428;11.974;2024-02-23T07:28:47;95171.91;;;11.99;48.44
61324;BME280;47203;48.428;11.974;2024-02-23T07:30:52;95161.06;;;12.00;48.43
61324;BME280;47203;48.428;11.974;2024-02-23T07:32:57;95158.09;;;12.02;48.21
61324;BME280;47203;48.428;11.974;2024-02-23T07:35:00;95160.88;;;12.05;48.11
61324;BME280;47203;48.428;11.974;2024-02-23T07:37:03;95161.66;;;12.06;48.32
61324;BME280;47203;48.428;11.974;2024-02-23T07:39:07;95172.38;;;12.10;48.17
61324;BME280;47203;48.428;11.974;2024-02-23T07:41:09;95173.91;;;12.11;48.19
61324;BME280;47203;48.428;11.974;2024-02-23T07:43:12;95179.66;;;12.13;48.02
61324;BME280;47203;48.428;11.974;2024-02-23T07:45:16;95179.34;;;12.14;48.01
61324;BME280;47203;48.428;11.974;2024-02-23T07:47:20;95187.41;;;12.18;48.19
61324;BME280;47203;48.428;11.974;2024-02-23T07:49:23;95191.91;;;12.17;48.26
61324;BME280;47203;48.428;11.974;2024-02-23T07:51:27;95196.84;;;12.19;48.09
61324;BME280;47203;48.428;11.974;2024-02-23T07:53:29;95197.66;;;12.19;48.08
61324;BME280;47203;48.428;11.974;2024-02-23T07:55:34;95202.63;;;12.21;47.83
61324;BME280;47203;48.428;11.974;2024-02-23T07:57:37;95196.53;;;12.20;48.04
61324;BME280;47203;48.428;11.974;2024-02-23T07:59:41;95199.97;;;12.21;47.93
61324;BME280;47203;48.428;11.974;2024-02-23T08:01:45;95195.47;;;12.21;48.01
61324;BME280;47203;48.428;11.974;2024-02-23T08:03:48;95191.75;;;12.22;48.02
61324;BME280;47203;48.428;11.974;2024-02-23T08:05:53;95187.25;;;12.23;48.12
61324;BME280;47203;48.428;11.974;2024-02-23T08:07:56;95193.75;;;12.26;47.90
61324;BME280;47203;48.428;11.974;2024-02-23T08:10:00;95185.84;;;12.26;48.03
61324;BME280;47203;48.428;11.974;2024-02-23T08:12:06;95177.19;;;12.25;47.95
61324;BME280;47203;48.428;11.974;2024-02-23T08:26:28;95161.91;;;12.39;48.35
61324;BME280;47203;48.428;11.974;2024-02-23T08:28:31;95155.84;;;12.48;48.20
61324;BME280;47203;48.428;11.974;2024-02-23T08:30:35;95161.44;;;12.55;48.15
61324;BME280;47203;48.428;11.974;2024-02-23T08:32:38;95157.84;;;12.60;48.20
61324;BME280;47203;48.428;11.974;2024-02-23T08:34:42;95155.06;;;12.65;47.97
61324;BME280;47203;48.428;11.974;2024-02-23T08:36:45;95166.22;;;12.70;47.99
61324;BME280;47203;48.428;11.974;2024-02-23T08:38:49;95167.75;;;12.71;48.06
61324;BME280;47203;48.428;11.974;2024-02-23T08:40:53;95164.78;;;12.73;47.83
61324;BME280;47203;48.428;11.974;2024-02-23T08:42:58;95150.50;;;12.74;47.80
61324;BME280;47203;48.428;11.974;2024-02-23T08:45:02;95151.88;;;12.80;47.83
61324;BME280;47203;48.428;11.974;2024-02-23T08:47:06;95155.13;;;12.86;47.74
61324;BME280;47203;48.428;11.974;2024-02-23T08:49:16;95159.31;;;12.87;47.76
61324;BME280;47203;48.428;11.974;2024-02-23T08:52:23;95162.09;;;12.90;47.89
61324;BME280;47203;48.428;11.974;2024-02-23T08:54:27;95157.13;;;12.89;47.69
61324;BME280;47203;48.428;11.974;2024-02-23T08:56:31;95140.19;;;12.90;47.71
61324;BME280;47203;48.428;11.974;2024-02-23T08:58:36;95138.31;;;12.90;47.72
61324;BME280;47203;48.428;11.974;2024-02-23T09:00:39;95150.88;;;12.93;47.69
61324;BME280;47203;48.428;11.974;2024-02-23T09:02:43;95156.50;;;12.92;47.54
61324;BME280;47203;48.428;11.974;2024-02-23T09:04:46;95158.38;;;12.91;47.57
61324;BME280;47203;48.428;11.974;2024-02-23T09:06:51;95153.41;;;12.90;47.43
61324;BME280;47203;48.428;11.974;2024-02-23T09:08:55;95158.53;;;12.86;47.64
61324;BME280;47203;48.428;11.974;2024-02-23T09:10:58;95174.38;;;12.86;47.63
61324;BME280;47203;48.428;11.974;2024-02-23T09:13:02;95193.50;;;12.83;47.44
61324;BME280;47203;48.428;11.974;2024-02-23T09:15:08;95203.91;;;12.80;47.57
61324;BME280;47203;48.428;11.974;2024-02-23T09:17:12;95202.34;;;12.79;47.54
61324;BME280;47203;48.428;11.974;2024-02-23T09:19:15;95203.00;;;12.75;47.74
61324;BME280;47203;48.428;11.974;2024-02-23T09:21:19;95211.09;;;12.70;47.63
61324;BME280;47203;48.428;11.974;2024-02-23T09:23:22;95211.69;;;12.67;47.71
61324;BME280;47203;48.428;11.974;2024-02-23T09:25:25;95219.16;;;12.65;47.65
61324;BME280;47203;48.428;11.974;2024-02-23T09:27:28;95225.53;;;12.64;47.64
61324;BME280;47203;48.428;11.974;2024-02-23T09:29:32;95230.03;;;12.64;47.70
61324;BME280;47203;48.428;11.974;2024-02-23T09:31:37;95234.56;;;12.63;47.60
61324;BME280;47203;48.428;11.974;2024-02-23T09:33:40;95238.72;;;12.64;47.64
61324;BME280;47203;48.428;11.974;2024-02-23T09:35:44;95242.78;;;12.62;47.63
61324;BME280;47203;48.428;11.974;2024-02-23T09:37:47;95247.13;;;12.57;47.62
61324;BME280;47203;48.428;11.974;2024-02-23T09:39:51;95240.59;;;12.55;47.53
61324;BME280;47203;48.428;11.974;2024-02-23T09:41:56;95222.28;;;12.50;47.40
61324;BME280;47203;48.428;11.974;2024-02-23T09:44:00;95226.16;;;12.52;47.49
61324;BME280;47203;48.428;11.974;2024-02-23T09:46:04;95239.38;;;12.52;47.44
61324;BME280;47203;48.428;11.974;2024-02-23T09:48:10;95238.28;;;12.53;47.28
61324;BME280;47203;48.428;11.974;2024-02-23T09:50:17;95237.97;;;12.55;47.34
61324;BME280;47203;48.428;11.974;2024-02-23T09:52:23;95236.25;;;12.59;47.26
61324;BME280;47203;48.428;11.974;2024-02-23T09:54:27;95242.31;;;12.60;47.26
61324;BME280;47203;48.428;11.974;2024-02-23T09:56:31;95237.81;;;12.60;47.25
61324;BME280;47203;48.428;11.974;2024-02-23T09:58:37;95236.25;;;12.59;47.25
61324;BME280;47203;48.428;11.974;2024-02-23T10:00:43;95244.63;;;12.61;47.15
61324;BME280;47203;48.428;11.974;2024-02-23T10:02:47;95245.75;;;12.60;46.91
61324;BME280;47203;48.428;11.974;2024-02-23T10:04:54;95240.47;;;12.60;46.50
61324;BME280;47203;48.428;11.974;2024-02-23T10:06:59;95237.03;;;12.60;46.64
61324;BME280;47203;48.428;11.974;2024-02-23T10:09:03;95230.97;;;12.59;46.21
61324;BME280;47203;48.428;11.974;2024-02-23T10:11:07;95225.69;;;12.59;46.21
61324;BME280;47203;48.428;11.974;2024-02-23T10:13:11;95217.91;;;12.63;46.14
61324;BME280;47203;48.428;11.974;2024-02-23T10:15:15;95226.94;;;12.62;46.17
61324;BME280;47203;48.428;11.974;2024-02-23T10:17:20;95237.50;;;12.62;46.35
61324;BME280;47203;48.428;11.974;2024-02-23T10:19:24;95234.88;;;12.62;46.35
61324;BME280;47203;48.428;11.974;2024-02-23T10:21:33;95247.91;;;12.58;45.96
61324;BME280;47203;48.428;11.974;2024-02-23T10:23:36;95247.75;;;12.54;46.04
61324;BME280;47203;48.428;11.974;2024-02-23T10:25:59;95259.84;;;12.47;46.24
61324;BME280;47203;48.428;11.974;2024-02-23T10:28:03;95254.44;;;12.43;45.87
61324;BME280;47203;48.428;11.974;2024-02-23T10:30:08;95248.84;;;12.36;45.96
61324;BME280;47203;48.428;11.974;2024-02-23T10:32:15;95244.66;;;12.26;46.03
61324;BME280;47203;48.428;11.974;2024-02-23T10:34:19;95233.47;;;12.20;45.93
61324;BME280;47203;48.428;11.974;2024-02-23T10:36:29;95236.09;;;12.12;46.04
61324;BME280;47203;48.428;11.974;2024-02-23T10:38:38;95247.28;;;12.09;45.88
61324;BME280;47203;48.428;11.974;2024-02-23T10:40:44;95243.41;;;12.06;45.93
61324;BME280;47203;48.428;11.974;2024-02-23T10:42:51;95235.47;;;12.06;46.04
61324;BME280;47203;48.428;11.974;2024-02-23T10:44:59;95227.28;;;12.08;46.11
61324;BME280;47203;48.428;11.974;2024-02-23T10:47:05;95234.88;;;12.09;46.31
61324;BME280;47203;48.428;11.974;2024-02-23T10:49:09;95235.34;;;12.11;46.56
61324;BME280;47203;48.428;11.974;2024-02-23T10:51:14;95218.75;;;12.11;46.50
61324;BME280;47203;48.428;11.974;2024-02-23T10:53:24;95234.72;;;12.14;46.54
61324;BME280;47203;48.428;11.974;2024-02-23T10:55:31;95231.47;;;12.17;46.73
61324;BME280;47203;48.428;11.974;2024-02-23T10:57:36;95224.03;;;12.19;46.25
61324;BME280;47203;48.428;11.974;2024-02-23T10:59:40;95228.50;;;12.19;46.04
61324;BME280;47203;48.428;11.974;2024-02-23T11:01:45;95226.97;;;12.18;45.76